Weather History for Stigler, OK

Change the Weather History Date:

Sunday, May 18, 2014

  Actual Average (KJSV) Record (KJSV)
Temperature  
Mean Temperature 64 °F -  
Max Temperature 77 °F 82 °F 92 °F (1956)
Min Temperature 50 °F 60 °F 44 °F (1968)
Degree Days  
Heating Degree Days 2    
Growing Degree Days 14 (Base 50)    
Moisture  
Dew Point 52 °F    
Average Humidity 70    
Maximum Humidity 94    
Minimum Humidity 41    
Precipitation  
Precipitation 0.00 in - - ()
Sea Level Pressure  
Sea Level Pressure 30.11 in    
Wind  
Wind Speed 9 mph (ESE)    
Max Wind Speed 14 mph    
Max Gust Speed 20 mph    
Visibility 10 miles    
Events      
Averages and records for this station are not official NWS values.
T = Trace of Precipitation, MM = Missing Value Source: NWS Daily Summary

Daily Weather History Graph

Daily Weather History Graph

Search for Another Location

Airport:

Trip Planner

Search our weather history database for the weather conditions in past years. The results will help you decide how hot, cold, wet, or windy it might be!

Date:

Astronomy

May. 18, 2014 Rise Set
Actual Time 6:13 AM CDT 8:20 PM CDT
Civil Twilight 5:45 AM CDT 8:48 PM CDT
Nautical Twilight 5:10 AM CDT 9:23 PM CDT
Astronomical Twilight 4:33 AM CDT 10:00 PM CDT
Moon No Moon Rise 10:02 AM CDT (5/18)
Length of Visible Light 15h 03m
Length of Day
14h 06m
Waning Gibbous, 81% of the Moon is Illuminated
May 18
Waning Gibbous
May 21
Last Quarter
May 28
New
Jun 5
First Quarter
Jun 12
Full

Hourly Weather History & Observations

Time (CDT) Temp. Dew Point Humidity Pressure Visibility Wind Dir Wind Speed Gust Speed Precip Events Conditions
12:15 AM 53.6 °F 46.4 °F 77% 30.15 in 10.0 mi East 9.2 mph - N/A   Partly Cloudy
12:55 AM 51.8 °F 48.2 °F 88% 30.15 in 10.0 mi ESE 6.9 mph - N/A   Clear
1:15 AM 51.8 °F 48.2 °F 88% 30.16 in 10.0 mi East 6.9 mph - N/A   Partly Cloudy
1:35 AM 51.8 °F 48.2 °F 88% 30.15 in 10.0 mi East 8.1 mph - N/A   Scattered Clouds
1:55 AM 51.8 °F 48.2 °F 88% 30.15 in 10.0 mi East 8.1 mph - N/A   Mostly Cloudy
2:15 AM 50.0 °F 48.2 °F 94% 30.15 in 10.0 mi East 8.1 mph - N/A   Mostly Cloudy
2:35 AM 50.0 °F 48.2 °F 94% 30.14 in 9.0 mi ESE 3.5 mph - N/A   Partly Cloudy
2:55 AM 50.0 °F 48.2 °F 94% 30.14 in 10.0 mi ESE 6.9 mph - N/A   Scattered Clouds
3:15 AM 50.0 °F 48.2 °F 94% 30.14 in 10.0 mi ESE 6.9 mph - N/A   Mostly Cloudy
3:35 AM 50.0 °F 48.2 °F 94% 30.14 in 10.0 mi ESE 6.9 mph - N/A   Overcast
3:55 AM 50.0 °F 48.2 °F 94% 30.13 in 9.0 mi ESE 8.1 mph - N/A   Overcast
4:15 AM 50.0 °F 48.2 °F 94% 30.14 in 9.0 mi East 6.9 mph - N/A   Overcast
4:35 AM 50.0 °F 48.2 °F 94% 30.15 in 10.0 mi ESE 5.8 mph - N/A   Overcast
4:55 AM 51.8 °F 48.2 °F 88% 30.15 in 10.0 mi ESE 8.1 mph - N/A   Overcast
5:15 AM 51.8 °F 48.2 °F 88% 30.15 in 10.0 mi East 6.9 mph - N/A   Overcast
5:35 AM 51.8 °F 48.2 °F 88% 30.14 in 10.0 mi ESE 8.1 mph - N/A   Overcast
5:55 AM 51.8 °F 48.2 °F 88% 30.15 in 10.0 mi East 6.9 mph - N/A   Overcast
6:15 AM 51.8 °F 46.4 °F 82% 30.15 in 10.0 mi East 4.6 mph - N/A   Overcast
6:35 AM 51.8 °F 46.4 °F 82% 30.15 in 10.0 mi East 8.1 mph - N/A   Mostly Cloudy
7:15 AM 53.6 °F 48.2 °F 82% 30.16 in 10.0 mi ESE 8.1 mph - N/A   Overcast
7:35 AM 53.6 °F 48.2 °F 82% 30.16 in 10.0 mi ESE 10.4 mph - N/A   Overcast
7:55 AM 53.6 °F 48.2 °F 82% 30.16 in 10.0 mi ESE 13.8 mph - N/A   Overcast
8:15 AM 53.6 °F 48.2 °F 82% 30.17 in 10.0 mi ESE 10.4 mph - N/A   Overcast
8:55 AM 57.2 °F 48.2 °F 72% 30.17 in 10.0 mi ESE 9.2 mph - N/A   Mostly Cloudy
9:15 AM 57.2 °F 48.2 °F 72% 30.18 in 10.0 mi ESE 6.9 mph - N/A   Overcast
9:35 AM 57.2 °F 48.2 °F 72% 30.18 in 10.0 mi ESE 9.2 mph - N/A   Overcast
9:55 AM 59.0 °F 48.2 °F 67% 30.18 in 10.0 mi ESE 9.2 mph - N/A   Overcast
10:15 AM 59.0 °F 48.2 °F 67% 30.18 in 10.0 mi ESE 11.5 mph - N/A   Overcast
10:35 AM 59.0 °F 48.2 °F 67% 30.17 in 10.0 mi ESE 11.5 mph - N/A   Overcast
11:35 AM 64.4 °F 51.8 °F 64% 30.17 in 10.0 mi East 10.4 mph - N/A   Partly Cloudy
11:55 AM 66.2 °F 51.8 °F 60% 30.15 in 10.0 mi SE 11.5 mph 16.1 mph N/A   Clear
12:15 PM 66.2 °F 53.6 °F 64% 30.16 in 10.0 mi East 10.4 mph - N/A   Clear
12:35 PM 68.0 °F 53.6 °F 60% 30.15 in 10.0 mi East 10.4 mph - N/A   Partly Cloudy
12:55 PM 68.0 °F 53.6 °F 60% 30.14 in 10.0 mi East 12.7 mph 19.6 mph N/A   Clear
1:15 PM 68.0 °F 55.4 °F 64% 30.12 in 10.0 mi East 11.5 mph 17.3 mph N/A   Clear
1:35 PM 69.8 °F 55.4 °F 60% 30.12 in 10.0 mi East 13.8 mph 18.4 mph N/A   Clear
1:55 PM 71.6 °F 55.4 °F 57% 30.11 in 10.0 mi East 11.5 mph 18.4 mph N/A   Clear
2:15 PM 71.6 °F 55.4 °F 57% 30.10 in 10.0 mi ESE 11.5 mph 16.1 mph N/A   Clear
2:35 PM 73.4 °F 57.2 °F 57% 30.09 in 10.0 mi SE 10.4 mph 17.3 mph N/A   Clear
2:55 PM 73.4 °F 57.2 °F 57% 30.09 in 10.0 mi SE 11.5 mph 16.1 mph N/A   Mostly Cloudy
3:15 PM 73.4 °F 57.2 °F 57% 30.08 in 10.0 mi SE 11.5 mph 16.1 mph N/A   Overcast
3:35 PM 75.2 °F 57.2 °F 53% 30.07 in 10.0 mi ESE 13.8 mph 18.4 mph N/A   Scattered Clouds
3:55 PM 75.2 °F 57.2 °F 53% 30.06 in 10.0 mi ESE 11.5 mph 18.4 mph N/A   Scattered Clouds
4:15 PM 75.2 °F 57.2 °F 53% 30.06 in 10.0 mi SE 10.4 mph - N/A   Partly Cloudy
4:35 PM 75.2 °F 57.2 °F 53% 30.06 in 10.0 mi SE 10.4 mph 17.3 mph N/A   Clear
4:55 PM 75.2 °F 57.2 °F 53% 30.05 in 10.0 mi SE 10.4 mph 16.1 mph N/A   Partly Cloudy
5:15 PM 75.2 °F 57.2 °F 53% 30.05 in 10.0 mi SE 10.4 mph 19.6 mph N/A   Partly Cloudy
5:35 PM 77.0 °F 57.2 °F 50% 30.04 in 10.0 mi ESE 12.7 mph 17.3 mph N/A   Clear
5:55 PM 77.0 °F 57.2 °F 50% 30.04 in 10.0 mi SE 10.4 mph - N/A   Scattered Clouds
6:15 PM 75.2 °F 55.4 °F 50% 30.04 in 10.0 mi SE 9.2 mph 18.4 mph N/A   Scattered Clouds
6:35 PM 75.2 °F 53.6 °F 47% 30.03 in 10.0 mi SSE 10.4 mph - N/A   Mostly Cloudy
6:55 PM 75.2 °F 50.0 °F 41% 30.03 in 10.0 mi SSE 9.2 mph - N/A   Mostly Cloudy
7:15 PM 75.2 °F 50.0 °F 41% 30.03 in 10.0 mi SSE 10.4 mph - N/A   Partly Cloudy
7:35 PM 73.4 °F 50.0 °F 44% 30.03 in 10.0 mi SSE 8.1 mph - N/A   Clear
7:55 PM 71.6 °F 50.0 °F 46% 30.03 in 10.0 mi SE 6.9 mph - N/A   Clear
8:35 PM 69.8 °F 51.8 °F 53% 30.02 in 10.0 mi SE 9.2 mph - N/A   Clear
8:55 PM 68.0 °F 51.8 °F 56% 30.02 in 10.0 mi SE 9.2 mph - N/A   Partly Cloudy
9:15 PM 66.2 °F 55.4 °F 68% 30.02 in 10.0 mi ESE 5.8 mph - N/A   Partly Cloudy
9:35 PM 66.2 °F 57.2 °F 73% 30.03 in 10.0 mi ESE 10.4 mph - N/A   Partly Cloudy
9:55 PM 64.4 °F 57.2 °F 77% 30.03 in 10.0 mi ESE 10.4 mph - N/A   Partly Cloudy
10:15 PM 64.4 °F 57.2 °F 77% 30.03 in 10.0 mi ESE 10.4 mph - N/A   Partly Cloudy
10:35 PM 64.4 °F 57.2 °F 77% 30.03 in 10.0 mi ESE 11.5 mph 17.3 mph N/A   Scattered Clouds
11:15 PM 62.6 °F 57.2 °F 82% 30.03 in 10.0 mi ESE 11.5 mph - N/A   Clear
11:35 PM 62.6 °F 57.2 °F 82% 30.03 in 10.0 mi ESE 11.5 mph - N/A   Clear
11:55 PM 62.6 °F 57.2 °F 82% 30.03 in 10.0 mi ESE 10.4 mph - N/A   Clear